createdAt,value
2023-04-16T00:01:16.883Z,8.23
2023-04-16T00:06:18.575Z,8.11
2023-04-16T00:11:25.181Z,8.02
2023-04-16T00:16:29.779Z,7.94
2023-04-16T00:21:31.491Z,7.93
2023-04-16T00:26:34.570Z,7.94
2023-04-16T00:31:39.375Z,8.02
2023-04-16T00:36:46.720Z,7.97
2023-04-16T00:41:53.668Z,7.97
2023-04-16T00:46:56.104Z,7.95
2023-04-16T00:52:06.725Z,7.93
2023-04-16T00:57:12.986Z,7.91
2023-04-16T01:02:18.792Z,7.90
2023-04-16T01:07:26.371Z,7.89
2023-04-16T01:12:37.513Z,7.91
2023-04-16T01:17:41.763Z,7.83
2023-04-16T01:22:46.407Z,7.86
2023-04-16T01:27:49.355Z,7.88
2023-04-16T01:32:53.237Z,7.91
2023-04-16T01:38:03.260Z,7.84
2023-04-16T01:43:04.853Z,7.91
2023-04-16T01:48:10.691Z,7.98
2023-04-16T01:53:20.780Z,8.01
2023-04-16T01:58:22.745Z,7.96
2023-04-16T02:03:27.199Z,7.89
2023-04-16T02:08:33.429Z,7.93
2023-04-16T02:13:37.057Z,7.89
2023-04-16T02:18:43.094Z,7.90
2023-04-16T02:23:46.969Z,7.94
2023-04-16T02:28:51.764Z,7.94
2023-04-16T02:34:02.388Z,7.94
2023-04-16T02:39:07.150Z,7.96
2023-04-16T02:44:08.977Z,7.91
2023-04-16T02:49:12.881Z,7.89
2023-04-16T02:54:18.750Z,7.84
2023-04-16T02:59:23.551Z,7.85
2023-04-16T03:04:25.263Z,7.78
2023-04-16T03:09:33.994Z,7.84
2023-04-16T03:14:37.114Z,7.86
2023-04-16T03:19:43.121Z,7.80
2023-04-16T03:25:05.558Z,7.83
2023-04-16T03:30:13.398Z,7.87
2023-04-16T03:35:15.074Z,7.81
2023-04-16T03:40:19.891Z,7.83
2023-04-16T03:45:30.495Z,7.85
2023-04-16T03:50:33.041Z,7.83
2023-04-16T03:55:36.645Z,7.86
2023-04-16T04:00:43.426Z,7.88
2023-04-16T04:05:48.843Z,7.96
2023-04-16T04:10:58.492Z,7.83
2023-04-16T04:16:03.296Z,7.91
2023-04-16T04:21:07.702Z,7.95
2023-04-16T04:26:10.791Z,7.93
2023-04-16T04:31:12.667Z,8.04
2023-04-16T04:36:15.148Z,8.04
2023-04-16T04:41:18.740Z,8.01
2023-04-16T04:46:21.940Z,7.99
2023-04-16T04:51:24.869Z,7.93
2023-04-16T04:56:30.226Z,7.91
2023-04-16T05:01:31.900Z,7.91
2023-04-16T05:06:35.570Z,7.92
2023-04-16T05:11:42.311Z,7.95
2023-04-16T05:16:45.617Z,8.02
2023-04-16T05:21:52.357Z,8.08
2023-04-16T05:26:55.471Z,8.07
2023-04-16T05:31:57.534Z,8.00
2023-04-16T05:37:00.433Z,8.06
2023-04-16T05:42:14.873Z,8.12
2023-04-16T05:47:19.131Z,8.24
2023-04-16T05:52:23.908Z,8.30
2023-04-16T05:57:31.618Z,8.27
2023-04-16T06:02:33.582Z,8.33
2023-04-16T06:07:39.780Z,8.39
2023-04-16T06:12:44.100Z,8.45
2023-04-16T06:17:45.779Z,8.65
2023-04-16T06:22:47.744Z,8.78
2023-04-16T06:27:58.316Z,8.78
2023-04-16T06:33:00.077Z,8.78
2023-04-16T06:38:04.688Z,8.76
2023-04-16T06:43:10.517Z,8.58
2023-04-16T06:48:12.490Z,8.44
2023-04-16T06:53:17.076Z,8.36
2023-04-16T06:58:20.085Z,8.10
2023-04-16T07:03:25.556Z,8.00
2023-04-16T07:08:30.352Z,7.93
2023-04-16T07:13:33.383Z,7.93
2023-04-16T07:18:36.791Z,7.92
2023-04-16T07:23:38.753Z,7.90
2023-04-16T07:28:45.034Z,7.88
2023-04-16T07:33:49.080Z,7.90
2023-04-16T07:38:50.748Z,7.92
2023-04-16T07:43:56.496Z,7.91
2023-04-16T07:48:58.176Z,7.90
2023-04-16T07:53:59.912Z,7.91
2023-04-16T07:59:14.836Z,7.96
2023-04-16T08:04:23.557Z,8.00
2023-04-16T08:09:26.870Z,8.02
2023-04-16T08:14:30.089Z,8.09
2023-04-16T08:19:33.760Z,8.02
2023-04-16T08:24:35.837Z,8.08
2023-04-16T08:29:41.878Z,8.32
2023-04-16T08:34:45.393Z,8.47
2023-04-16T08:39:53.159Z,8.50
2023-04-16T08:45:06.090Z,8.49
2023-04-16T08:50:09.362Z,8.48
2023-04-16T08:55:15.140Z,8.54
2023-04-16T09:00:22.386Z,8.69
2023-04-16T09:05:24.702Z,8.75
2023-04-16T09:10:27.491Z,8.83
2023-04-16T09:15:34.981Z,8.95
2023-04-16T09:20:38.629Z,8.97
2023-04-16T09:25:40.368Z,9.10
2023-04-16T09:30:46.151Z,9.26
2023-04-16T09:35:48.593Z,9.18
2023-04-16T09:41:05.895Z,9.42
2023-04-16T09:46:14.226Z,9.41
2023-04-16T09:51:20.480Z,9.46
2023-04-16T09:56:26.554Z,9.46
2023-04-16T10:01:30.668Z,9.40
2023-04-16T10:06:32.647Z,9.51
2023-04-16T10:11:37.931Z,9.56
2023-04-16T10:16:44.756Z,9.68
2023-04-16T10:21:54.563Z,9.84
2023-04-16T10:26:56.494Z,9.93
2023-04-16T10:32:00.024Z,9.82
2023-04-16T10:37:09.477Z,9.97
2023-04-16T10:42:14.698Z,9.85
2023-04-16T10:47:26.312Z,9.79
2023-04-16T10:52:29.293Z,9.79
2023-04-16T10:57:32.122Z,9.74
2023-04-16T11:02:40.640Z,9.84
2023-04-16T11:07:49.420Z,9.91
2023-04-16T11:12:51.949Z,9.91
2023-04-16T11:17:57.080Z,9.91
2023-04-16T11:23:03.436Z,9.95
2023-04-16T11:28:10.113Z,9.97
2023-04-16T11:33:13.095Z,10.06
2023-04-16T11:38:18.117Z,10.04
2023-04-16T11:43:22.394Z,10.11
2023-04-16T11:48:53.112Z,10.32
2023-04-16T11:54:00.718Z,10.51
2023-04-16T11:59:16.537Z,10.47
2023-04-16T12:04:28.414Z,10.52
2023-04-16T12:09:42.344Z,10.47
2023-04-16T12:14:57.313Z,10.55
2023-04-16T12:20:03.488Z,10.40
2023-04-16T12:25:06.676Z,10.31
2023-04-16T12:30:12.175Z,10.26
2023-04-16T12:35:31.183Z,10.19
2023-04-16T12:40:33.610Z,10.18
2023-04-16T12:45:35.328Z,10.12
2023-04-16T12:50:38.835Z,10.20
2023-04-16T12:55:40.914Z,10.22
2023-04-16T13:00:45.388Z,10.26
2023-04-16T13:05:51.009Z,10.34
2023-04-16T13:10:52.764Z,10.46
2023-04-16T13:15:59.077Z,10.49
2023-04-16T13:21:05.315Z,10.61
2023-04-16T13:26:09.630Z,10.70
2023-04-16T13:31:16.588Z,10.73
2023-04-16T13:36:19.756Z,10.83
2023-04-16T13:41:25.602Z,10.89
2023-04-16T13:46:29.424Z,11.04
2023-04-16T13:51:33.109Z,11.18
2023-04-16T13:56:34.834Z,11.22
2023-04-16T14:01:45.069Z,11.29
2023-04-16T14:06:51.599Z,11.46
2023-04-16T14:11:54.418Z,11.82
2023-04-16T14:16:59.365Z,11.88
2023-04-16T14:22:08.752Z,11.94
2023-04-16T14:27:12.232Z,12.09
2023-04-16T14:32:14.391Z,12.27
2023-04-16T14:37:17.809Z,12.21
2023-04-16T14:42:21.032Z,12.14
2023-04-16T14:47:25.453Z,12.31
2023-04-16T14:52:34.098Z,12.53
2023-04-16T14:57:38.041Z,12.48
2023-04-16T15:02:39.868Z,12.11
2023-04-16T15:07:43.026Z,12.05
2023-04-16T15:12:48.110Z,11.94
2023-04-16T15:17:52.757Z,12.12
2023-04-16T15:22:58.883Z,12.31
2023-04-16T15:28:03.067Z,12.34
2023-04-16T15:33:09.426Z,12.50
2023-04-16T15:38:12.522Z,12.55
2023-04-16T15:43:17.603Z,12.67
2023-04-16T15:48:24.801Z,12.50
2023-04-16T15:53:30.615Z,12.34
2023-04-16T15:58:37.760Z,12.07
2023-04-16T16:03:39.565Z,11.99
2023-04-16T16:08:48.734Z,11.87
2023-04-16T16:13:50.730Z,11.80
2023-04-16T16:18:55.029Z,11.76
2023-04-16T16:24:05.672Z,11.82
2023-04-16T16:29:17.793Z,11.81
2023-04-16T16:34:23.567Z,11.82
2023-04-16T16:39:28.505Z,11.85
2023-04-16T16:44:32.011Z,11.85
2023-04-16T16:49:36.724Z,11.83
2023-04-16T16:54:44.945Z,11.66
2023-04-16T16:59:48.673Z,11.54
2023-04-16T17:04:52.486Z,11.40
2023-04-16T17:09:56.832Z,11.26
2023-04-16T17:15:04.778Z,11.22
2023-04-16T17:20:07.789Z,11.12
2023-04-16T17:25:14.192Z,11.08
2023-04-16T17:30:17.785Z,10.97
2023-04-16T17:35:24.196Z,10.94
2023-04-16T17:40:27.398Z,10.81
2023-04-16T17:45:31.579Z,10.81
2023-04-16T17:50:38.960Z,10.76
2023-04-16T17:55:54.537Z,10.64
2023-04-16T18:00:57.818Z,10.62
2023-04-16T18:06:01.946Z,10.68
2023-04-16T18:11:08.382Z,10.59
2023-04-16T18:16:14.119Z,10.44
2023-04-16T18:21:20.955Z,10.44
2023-04-16T18:26:29.912Z,10.38
2023-04-16T18:31:34.364Z,10.34
2023-04-16T18:36:36.167Z,10.32
2023-04-16T18:41:45.200Z,10.17
2023-04-16T18:46:52.863Z,10.11
2023-04-16T18:52:00.501Z,9.99
2023-04-16T18:57:08.148Z,9.93
2023-04-16T19:02:09.864Z,9.99
2023-04-16T19:07:13.701Z,9.86
2023-04-16T19:12:19.957Z,9.84
2023-04-16T19:17:25.452Z,9.76
2023-04-16T19:22:33.840Z,9.72
2023-04-16T19:27:40.329Z,9.77
2023-04-16T19:32:56.036Z,9.65
2023-04-16T19:38:02.790Z,9.55
2023-04-16T19:43:05.967Z,9.52
2023-04-16T19:48:22.628Z,9.53
2023-04-16T19:53:24.352Z,9.50
2023-04-16T19:58:32.465Z,9.49
2023-04-16T20:03:36.159Z,9.57
2023-04-16T20:08:40.218Z,9.53
2023-04-16T20:13:46.044Z,9.51
2023-04-16T20:18:47.738Z,9.52
2023-04-16T20:23:49.526Z,9.48
2023-04-16T20:28:57.289Z,9.45
2023-04-16T20:34:02.610Z,9.42
2023-04-16T20:39:06.722Z,9.29
2023-04-16T20:44:11.412Z,9.17
2023-04-16T20:49:20.286Z,9.11
2023-04-16T20:54:27.672Z,9.05
2023-04-16T20:59:37.801Z,9.00
2023-04-16T21:04:45.176Z,9.04
2023-04-16T21:09:47.006Z,9.02
2023-04-16T21:14:54.948Z,9.01
2023-04-16T21:20:05.774Z,9.07
2023-04-16T21:25:09.048Z,9.01
2023-04-16T21:30:15.448Z,9.01
2023-04-16T21:35:18.788Z,9.00
2023-04-16T21:40:22.627Z,9.01
2023-04-16T21:45:25.699Z,8.93
2023-04-16T21:50:32.452Z,8.98
2023-04-16T21:55:34.078Z,8.95
2023-04-16T22:00:43.736Z,9.01
2023-04-16T22:05:51.120Z,9.00
2023-04-16T22:10:56.654Z,9.09
2023-04-16T22:16:00.127Z,9.05
2023-04-16T22:21:10.825Z,9.07
2023-04-16T22:26:14.162Z,9.00
2023-04-16T22:31:21.949Z,8.98
2023-04-16T22:36:29.307Z,8.87
2023-04-16T22:41:30.954Z,8.73
2023-04-16T22:46:42.754Z,8.61
2023-04-16T22:51:51.471Z,8.49
2023-04-16T22:56:53.092Z,8.41
2023-04-16T23:01:56.145Z,8.33
2023-04-16T23:07:00.833Z,8.27
2023-04-16T23:12:04.367Z,8.25
2023-04-16T23:17:07.566Z,8.18
2023-04-16T23:22:14.578Z,8.19
2023-04-16T23:27:19.854Z,8.22
2023-04-16T23:32:28.777Z,8.28
2023-04-16T23:37:30.506Z,8.30
2023-04-16T23:42:33.842Z,8.28
2023-04-16T23:47:46.195Z,8.22
2023-04-16T23:52:49.906Z,8.21
2023-04-16T23:57:51.500Z,8.15
